• Join FlightAware (Why Join?)
  • Login
  • US Flag 
11:28PM EDT


 

Airport Tracker/Info


-or-


 

Live Flight TrackerFlight Track Log ✈ JBU1433 ✈ 02-Sep-2013 ✈ KMCO - TJSJ / SJU

Flight Track Log - Related Links

Times and Time Zones

All times are in EDT time to prevent confusion due to time zone crossing. See the JBU1433 flight status page for this flight to view local times or setup timezone preferences in your user account.

Time Position Orientation Groundspeed Altitude Reporting Facility
EDT Latitude Longitude Course Direction KTS MPH feet Rate Location/Type
10:59PM 28.4167 -81.3167 149° Southeast 163 188 500  Level Orlando TRACON
11:00PM 28.4000 -81.3000 139° Southeast 180 207 1,900 1,560 Climbing Orlando TRACON
11:01PM 28.3500 -81.2333 130° Southeast 269 310 3,400 2,280 Climbing Orlando TRACON
11:02PM 27.4976 -79.6561 144° Southeast  Level Estimated
11:02PM 28.3333 -81.1667 106° East 280 322 6,500  Level Orlando TRACON
11:03PM 27.4422 -79.5598 149° Southeast  Level Estimated
11:03PM 28.2869 -81.0650 117° Southeast 301 346 9,700  Level Miami Center
11:04PM 27.3867 -79.4635 149° Southeast  Level Estimated
11:04PM 28.2539 -80.9811 114° Southeast 301 346 11,100  Level Miami Center
11:05PM 28.1983 -80.8850 123° Southeast 342 394 13,000 2,100 Climbing Miami Center
11:06PM 28.1386 -80.7839 124° Southeast 374 430 15,300 2,160 Climbing Miami Center
11:07PM 28.0806 -80.6831 123° Southeast 384 442 17,300 1,800 Climbing Miami Center
11:08PM 28.0086 -80.5631 124° Southeast 397 457 18,900 1,680 Climbing Miami Center
11:09PM 27.9467 -80.4553 123° Southeast 405 466 20,700 1,680 Climbing Miami Center
11:10PM 27.8825 -80.3475 124° Southeast 405 466 22,300 1,380 Climbing Miami Center
11:11PM 27.8122 -80.2306 124° Southeast 432 497 23,500 1,260 Climbing Miami Center
11:12PM 27.7439 -80.1158 124° Southeast 438 504 24,800 1,260 Climbing Miami Center
11:13PM 27.6736 -79.9989 124° Southeast 444 511 26,000 1,080 Climbing Miami Center
11:14PM 27.6028 -79.8822 124° Southeast 449 517 27,000 960 Climbing Miami Center
11:15PM 27.5344 -79.7608 122° Southeast 451 519 28,000 960 Climbing Miami Center
11:16PM 27.4697 -79.6517 124° Southeast 466 536 29,000 900 Climbing Miami Center
11:17PM 27.3947 -79.5281 124° Southeast 475 547 29,900 1,080 Climbing Miami Center
11:18PM 27.3136 -79.3931 124° Southeast 475 547 31,200 1,140 Climbing Miami Center
11:19PM 27.2364 -79.2675 125° Southeast 475 547 32,200 1,020 Climbing Miami Center
11:20PM 27.1653 -79.1469 124° Southeast 470 541 33,300 1,080 Climbing Miami Center
11:21PM 27.0961 -79.0358 125° Southeast 476 548 34,400 960 Climbing Miami Center
11:22PM 27.0164 -78.9039 124° Southeast 476 548 35,300 900 Climbing Miami Center
11:23PM 26.9408 -78.7814 125° Southeast 471 542 36,300 840 Climbing Miami Center
11:24PM 26.8608 -78.6636 127° Southeast 476 548 37,000 300 Climbing Miami Center
11:25PM 26.7975 -78.5603 124° Southeast 464 534 37,000  Level Miami Center
11:26PM 26.7278 -78.4314 121° Southeast 464 534 37,000 -60 Level Miami Center
11:27PM 26.6581 -78.3117 123° Southeast 469 540 36,900 -60 Descending Miami Center
11:28PM 26.5861 -78.1947 125° Southeast 469 540 36,900  Level Miami Center
11:29PM 26.5036 -78.0731 127° Southeast 469 540 37,000  Climbing Miami Center
11:30PM 26.4356 -77.9494 122° Southeast 469 540 37,000  Level Miami Center
11:31PM 26.3633 -77.8350 125° Southeast 464 534 37,000  Level Miami Center
11:32PM 26.2931 -77.7164 123° Southeast 464 534 37,000  Level Miami Center
11:33PM 26.2183 -77.5931 124° Southeast 469 540 37,000  Level Miami Center
11:34PM 26.1478 -77.4767 124° Southeast 469 540 37,000  Level Miami Center
11:35PM 26.0814 -77.3700 125° Southeast 477 549 37,000  Level Miami Center
11:36PM 26.0086 -77.2542 125° Southeast 470 541 37,000  Level Miami Center
11:37PM 25.9358 -77.1336 124° Southeast 470 541 37,000  Level Miami Center
11:38PM 25.8628 -77.0158 125° Southeast 470 541 37,000  Level Miami Center
11:39PM 25.7875 -76.8981 125° Southeast 470 541 37,000  Level Miami Center
11:40PM 25.7167 -76.7803 124° Southeast 465 535 37,000  Level Miami Center
11:41PM 25.6411 -76.6628 125° Southeast 465 535 37,000  Level Miami Center
11:42PM 25.5678 -76.5456 125° Southeast 470 541 37,000  Level Miami Center
11:43PM 25.4944 -76.4281 125° Southeast 470 541 37,000  Level Miami Center
11:44PM 25.4208 -76.3111 125° Southeast 470 541 37,000  Level Miami Center
11:45PM 25.3494 -76.1986 125° Southeast 464 534 37,000  Level Miami Center
11:46PM 25.2756 -76.0842 126° Southeast 459 528 37,000  Level Miami Center
11:47PM 25.2061 -75.9697 124° Southeast 459 528 37,000  Level Miami Center
11:48PM 25.1322 -75.8556 126° Southeast 459 528 37,000  Level Miami Center
11:49PM 25.0581 -75.7417 126° Southeast 459 528 37,000  Level Miami Center
11:50PM 24.9756 -75.6139 125° Southeast 459 528 37,000  Level Miami Center
11:51PM 24.9036 -75.5047 126° Southeast 452 520 37,000  Level Miami Center
11:52PM 24.8314 -75.3886 124° Southeast 457 526 37,000  Level Miami Center
11:53PM 24.7572 -75.2753 126° Southeast 457 526 37,000  Level Miami Center
11:54PM 24.6828 -75.1572 125° Southeast 457 526 37,000  Level Miami Center
11:55PM 24.6103 -75.0486 126° Southeast 457 526 37,000  Level Miami Center
11:56PM 24.5378 -74.9331 125° Southeast 457 526 37,000  Level Miami Center
11:57PM 24.4611 -74.8200 127° Southeast 457 526 37,000  Level Miami Center
11:58PM 24.3906 -74.7117 126° Southeast 452 520 37,000  Level Miami Center
11:59PM 24.3158 -74.5967 125° Southeast 452 520 37,000  Level Miami Center
12:00AM 24.2450 -74.4864 125° Southeast 452 520 37,000  Level Miami Center
12:01AM 24.1700 -74.3739 126° Southeast 452 520 37,000  Level Miami Center
12:02AM 24.0992 -74.2639 125° Southeast 452 520 37,000  Level Miami Center
12:03AM 24.0242 -74.1517 126° Southeast 447 514 37,000  Level Miami Center
12:04AM 23.9511 -74.0419 126° Southeast 447 514 37,000  Level Miami Center
12:05AM 23.8778 -73.9322 126° Southeast 447 514 37,000  Level Miami Center
12:06AM 23.8067 -73.8203 125° Southeast 453 521 37,000  Level Miami Center
12:07AM 23.7333 -73.7086 126° Southeast 448 516 37,000  Level Miami Center
12:08AM 23.6686 -73.6128 126° Southeast 448 516 37,000  Level Miami Center
12:09AM 23.5931 -73.5036 127° Southeast 448 516 37,000  Level Miami Center
12:10AM 23.5217 -73.3922 125° Southeast 448 516 37,000  Level Miami Center
12:11AM 23.4458 -73.2833 127° Southeast 448 516 37,000  Level Miami Center
12:12AM 23.3744 -73.1744 126° Southeast 448 516 37,000 -60 Level Miami Center
12:13AM 23.3028 -73.0681 126° Southeast 448 516 36,900  Descending Miami Center
12:14AM 23.2269 -72.9619 128° Southeast 443 510 37,000  Climbing Miami Center
12:15AM 23.1531 -72.8533 126° Southeast 443 510 37,000  Level Miami Center
12:16AM 23.0833 -72.7450 125° Southeast 443 510 37,000  Level Miami Center
12:17AM 23.0114 -72.6344 125° Southeast 448 516 37,000  Level Miami Center
12:18AM 22.9353 -72.5264 127° Southeast 448 516 37,000  Level Miami Center
12:19AM 22.8611 -72.4208 127° Southeast 448 516 37,000  Level Miami Center
12:20AM 22.7850 -72.3156 128° Southeast 448 516 37,000  Level Miami Center
12:21AM 22.7106 -72.2033 126° Southeast 448 516 37,000  Level Miami Center
12:22AM 22.6361 -72.0958 127° Southeast 448 516 37,000  Level Miami Center
12:23AM 22.5639 -71.9883 126° Southeast 448 516 37,000  Level Miami Center
12:24AM 22.4828 -71.8700 127° Southeast 448 516 37,000  Level Miami Center
12:25AM 22.4083 -71.7628 127° Southeast 448 516 37,000  Level Miami Center
12:26AM 22.3317 -71.6536 127° Southeast 448 516 37,000  Level Miami Center
12:27AM 22.2589 -71.5444 126° Southeast 448 516 37,000  Level Miami Center
12:28AM 22.1822 -71.4378 128° Southeast 448 516 37,000  Level Miami Center
12:29AM 22.1092 -71.3289 126° Southeast 448 516 37,000  Level Miami Center
12:30AM 22.0344 -71.2200 126° Southeast 448 516 37,000  Level Miami Center
12:31AM 21.9553 -71.1117 128° Southeast 448 516 37,000  Level Miami Center
12:32AM 21.8803 -71.0031 127° Southeast 448 516 37,000  Level Miami Center
12:33AM 21.8050 -70.8947 127° Southeast 448 516 37,000  Level Miami Center
12:34AM 21.7278 -70.7844 127° Southeast 448 516 37,000  Level Miami Center
12:35AM 21.6525 -70.6764 127° Southeast 448 516 37,000  Level Miami Center
12:36AM 21.5772 -70.5706 127° Southeast 448 516 37,000  Level Miami Center
12:37AM 21.4997 -70.4628 128° Southeast 448 516 37,000  Level Miami Center
12:38AM 21.4244 -70.3572 127° Southeast 448 516 37,000  Level Miami Center
12:39AM 21.3489 -70.2497 127° Southeast 448 516 37,000  Level Miami Center
12:40AM 21.2803 -70.1553 128° Southeast 448 516 37,000  Level Miami Center
12:41AM 21.2047 -70.0478 127° Southeast 448 516 37,000  Level Miami Center
12:42AM 21.1311 -69.9406 126° Southeast 448 516 37,000  Level Miami Center
12:43AM 21.0556 -69.8378 128° Southeast 448 516 37,000  Level Miami Center
12:44AM 20.9778 -69.7308 128° Southeast 448 516 37,000  Level Miami Center
12:45AM 20.9019 -69.6217 127° Southeast 448 516 37,000  Level Miami Center
12:46AM 20.8219 -69.5153 129° Southeast 448 516 37,000  Level Miami Center
12:47AM 20.7481 -69.4086 127° Southeast 448 516 37,000  Level Miami Center
12:48AM 20.6700 -69.3019 128° Southeast 448 516 37,000  Level Miami Center
12:49AM 20.5961 -69.1978 127° Southeast 448 516 37,000  Level Miami Center
12:50AM 20.5181 -69.0917 128° Southeast 448 516 37,000  Level Miami Center
12:51AM 20.4436 -68.9811 126° Southeast 448 516 37,000  Level Miami Center
12:52AM 20.3694 -68.8725 126° Southeast 454 522 37,000  Level Miami Center
12:53AM 20.2992 -68.7619 124° Southeast 454 522 37,000  Level Miami Center
12:54AM 20.2289 -68.6514 124° Southeast 459 528 37,000  Level Miami Center
12:55AM 20.1586 -68.5411 124° Southeast 459 528 37,000  Level Miami Center
12:56AM 20.0839 -68.4308 126° Southeast 454 522 37,000  Level Miami Center
12:57AM 20.0136 -68.3231 125° Southeast 454 522 37,000  Level Miami Center
12:58AM 19.9411 -68.2153 126° Southeast 454 522 37,000  Level Miami Center
12:59AM 19.8683 -68.1056 125° Southeast 454 522 37,000  Level Miami Center
01:00AM 19.8167 -68.0333 127° Southeast 450 518 37,000  Level San Juan Center
01:01AM 19.7500 -67.9333 125° Southeast 440 506 37,000  Level San Juan Center
01:02AM 19.6667 -67.8167 127° Southeast 450 518 37,000  Level San Juan Center
01:03AM 19.6000 -67.7000 121° Southeast 440 506 37,000 -720 Level San Juan Center
01:04AM 19.5333 -67.5833 121° Southeast 450 518 35,600 -1,920 Descending San Juan Center
01:05AM 19.4500 -67.4833 131° Southeast 450 518 33,200 -2,400 Descending San Juan Center
01:07AM 19.2833 -67.2667 129° Southeast 460 529 28,400 -2,340 Descending San Juan Center
01:08AM 19.2333 -67.1667 118° Southeast 430 495 26,300 -2,280 Descending San Juan Center
01:09AM 19.1667 -67.0500 121° Southeast 430 495 23,900 -2,220 Descending San Juan Center
01:10AM 19.0833 -66.9500 131° Southeast 420 483 21,900 -2,040 Descending San Juan Center
01:11AM 19.0167 -66.8500 125° Southeast 400 460 19,900 -2,040 Descending San Juan Center
01:12AM 18.9500 -66.7667 130° Southeast 380 437 17,900 -2,040 Descending San Juan Center
01:13AM 18.9000 -66.6833 122° Southeast 370 426 15,900 -1,980 Descending San Juan Center
01:14AM 18.8333 -66.5833 125° Southeast 370 426 14,000 -1,920 Descending San Juan Center
01:15AM 18.7833 -66.5000 122° Southeast 350 403 12,100 -1,740 Descending San Juan Center
01:16AM 18.7167 -66.4167 130° Southeast 340 391 10,600 -1,200 Descending San Juan Center
01:17AM 18.6833 -66.3500 118° Southeast 290 334 9,800 -1,200 Descending San Juan Center
01:18AM 18.6167 -66.2833 137° Southeast 290 334 8,200 -1,800 Descending San Juan Center
01:19AM 18.5500 -66.2500 155° Southeast 270 311 6,200 -2,340 Descending San Juan Center
01:20AM 18.4667 -66.2333 169° South 270 311 3,500 -1,860 Descending San Juan Center
01:21AM 18.4000 -66.2167 167° South 250 288 2,500 -540 Descending San Juan Center
01:22AM 18.3833 -66.1500 105° East 210 242 2,500 -240 Level San Juan Center
01:23AM 18.3833 -66.1000 90° East 180 207 2,100 -660 Descending San Juan Center
01:24AM 18.4000 -66.0667 62° Northeast 150 173 1,200 -780 Descending San Juan Center
01:25AM 18.4167 -66.0333 62° Northeast 140 161 600 -600 Descending San Juan Center